Witamy     NOTAM     FEEDBACK     Informacje     Wydarzenia     O nas      FIR Warszawa      Kontrolerzy     Piloci     Lotniska     Pliki     Linki     Forum    

Aktualna pogoda

METAR

EPBY 152100Z 09003KT 7000 SCT040 05/04 Q1034
EPGD 152100Z 11003KT 8000 SCT036 06/05 Q1035
EPKK 152100Z 04006KT 9999 BKN040 06/04 Q1031
EPKT 152100Z 03006KT 6000 NSC 02/01 Q1032
EPLB 152100Z 08009KT 9999 BKN021 OVC041 03/02 Q1033
EPLL 152100Z 05006KT 9999 BKN035 07/04 Q1033
EPMO 152100Z 07008KT 9999 BKN039 07/02 Q1034
EPPO 152100Z 12005KT 9999 BKN036 07/03 Q1034 R10/090095
EPRZ 152100Z 05007KT 9999 SCT008 BKN018 05/04 Q1032
EPSC 152100Z 12009KT CAVOK 05/02 Q1033
EPSY 152100Z VRB02KT 9999 BKN036 07/05 Q1035
EPWA 152100Z 08008KT 030V120 9999 BKN033 07/02 Q1034 NOSIG
EPWR 152100Z 11003KT 9999 FEW041 05/00 Q1033
EPZG 152100Z 00000KT 0600 R24/0325N FG BKN037 00/00 Q1033

METAR - MIL

EPCE 152100Z VRB01KT 7000 BKN035 04/04 Q1035 RMK 039 098 7/7 =
EPDA 152100Z 10003KT CAVOK 04/03 Q1035 RMK 039 094 0/0 =
EPDE 152100Z 06008KT 9999 BKN018 BKN030 04/02 Q1034 RMK 044 084 7/5=
EPIR 152100Z 07008KT 9999 BKN041 06/04 Q1035 RMK 058 090 7/7 =
EPKS 152100Z 09004KT 9999 SCT040 05/02 Q1034 RMK 050 080 4/4=528SAPL97 SOPR 1521
EPLK 152100Z VRB02KT 9999 BKN040 06/04 Q1033 RMK 060 084 7/7=
EPLY 152100Z 06002KT 9999 BKN043 06/04 Q1034 RMK 056 092 5/5=
EPMB 152100Z AUTO 11002KT 1600 NCD 01/01 Q1036 RMK 011 100 ///=
EPMI 152100Z 12002KT 9999 BKN033 03/02 Q1034 RMK 033 089 6/6=
EPMM 152100Z 06006KT 9999 BKN025 06/02 Q1034 RMK 057 075 7/7=
EPOK 152100Z 17005KT 9999 OVC036 09/07 Q1035 RMK 086 088 8/8 =
EPPR 152100Z VRB02KT 0200 FG NSC 04/03 Q1036 RMK 041 091 0/0=
EPPW 152100Z 07004KT 9999 BKN040 06/02 Q1034 RMK 060 075 7/7 =
EPRA 152100Z 07006KT 9999 BKN030 06/02 Q1033 RMK 056 079 7/7=
EPSN 152100Z 12006KT 9999 BKN033 05/02 Q1034 RMK 045 084 5/5=
EPTM 152100Z 05004KT 9999 BKN040 07/02 Q1033 RMK 068 072 7/7=

 

 
© 2001 Polish VACC
[logowanie]